sensor_id;sensor_type;location;lat;lon;timestamp;P1;durP1;ratioP1;P2;durP2;ratioP2
54171;SDS011;40076;52.354;4.970;2023-07-09T00:00:06;10.43;;;7.70;;
54171;SDS011;40076;52.354;4.970;2023-07-09T00:02:39;13.95;;;8.35;;
54171;SDS011;40076;52.354;4.970;2023-07-09T00:05:04;12.10;;;8.80;;
54171;SDS011;40076;52.354;4.970;2023-07-09T00:07:31;13.60;;;8.52;;
54171;SDS011;40076;52.354;4.970;2023-07-09T00:09:57;13.95;;;8.38;;
54171;SDS011;40076;52.354;4.970;2023-07-09T00:12:24;11.13;;;8.13;;
54171;SDS011;40076;52.354;4.970;2023-07-09T00:14:50;11.80;;;8.40;;
54171;SDS011;40076;52.354;4.970;2023-07-09T00:17:21;11.05;;;8.00;;
54171;SDS011;40076;52.354;4.970;2023-07-09T00:19:51;11.13;;;7.80;;
54171;SDS011;40076;52.354;4.970;2023-07-09T00:22:33;14.02;;;8.73;;
54171;SDS011;40076;52.354;4.970;2023-07-09T00:24:59;16.45;;;8.18;;
54171;SDS011;40076;52.354;4.970;2023-07-09T00:30:00;11.70;;;8.15;;
54171;SDS011;40076;52.354;4.970;2023-07-09T00:32:25;9.98;;;8.20;;
54171;SDS011;40076;52.354;4.970;2023-07-09T00:34:51;14.43;;;8.55;;
54171;SDS011;40076;52.354;4.970;2023-07-09T00:37:19;12.60;;;8.70;;
54171;SDS011;40076;52.354;4.970;2023-07-09T00:39:51;14.63;;;8.53;;
54171;SDS011;40076;52.354;4.970;2023-07-09T00:42:20;9.23;;;7.45;;
54171;SDS011;40076;52.354;4.970;2023-07-09T00:44:52;11.95;;;8.20;;
54171;SDS011;40076;52.354;4.970;2023-07-09T00:47:39;16.13;;;8.20;;
54171;SDS011;40076;52.354;4.970;2023-07-09T00:50:26;15.15;;;8.38;;
54171;SDS011;40076;52.354;4.970;2023-07-09T00:52:59;15.93;;;9.30;;
54171;SDS011;40076;52.354;4.970;2023-07-09T00:55:47;13.23;;;9.63;;
54171;SDS011;40076;52.354;4.970;2023-07-09T00:58:18;12.95;;;8.82;;
54171;SDS011;40076;52.354;4.970;2023-07-09T01:00:47;16.88;;;9.00;;
54171;SDS011;40076;52.354;4.970;2023-07-09T01:03:29;13.30;;;8.02;;
54171;SDS011;40076;52.354;4.970;2023-07-09T01:05:57;13.05;;;8.15;;
54171;SDS011;40076;52.354;4.970;2023-07-09T01:08:23;12.45;;;8.70;;
54171;SDS011;40076;52.354;4.970;2023-07-09T01:14:11;11.15;;;7.90;;
54171;SDS011;40076;52.354;4.970;2023-07-09T01:16:49;14.18;;;8.40;;
54171;SDS011;40076;52.354;4.970;2023-07-09T01:19:36;12.55;;;7.93;;
54171;SDS011;40076;52.354;4.970;2023-07-09T01:22:08;13.38;;;7.93;;
54171;SDS011;40076;52.354;4.970;2023-07-09T01:27:24;12.68;;;8.30;;
54171;SDS011;40076;52.354;4.970;2023-07-09T01:29:53;14.57;;;8.23;;
54171;SDS011;40076;52.354;4.970;2023-07-09T01:32:20;13.45;;;8.35;;
54171;SDS011;40076;52.354;4.970;2023-07-09T01:34:47;12.02;;;8.30;;
54171;SDS011;40076;52.354;4.970;2023-07-09T01:37:14;14.57;;;8.40;;
54171;SDS011;40076;52.354;4.970;2023-07-09T01:39:43;12.93;;;8.30;;
54171;SDS011;40076;52.354;4.970;2023-07-09T01:42:09;17.67;;;8.80;;
54171;SDS011;40076;52.354;4.970;2023-07-09T01:44:35;13.63;;;8.60;;
54171;SDS011;40076;52.354;4.970;2023-07-09T01:47:02;10.45;;;7.82;;
54171;SDS011;40076;52.354;4.970;2023-07-09T01:49:29;13.32;;;8.15;;
54171;SDS011;40076;52.354;4.970;2023-07-09T01:51:58;14.23;;;7.88;;
54171;SDS011;40076;52.354;4.970;2023-07-09T01:54:26;13.68;;;8.27;;
54171;SDS011;40076;52.354;4.970;2023-07-09T02:00:17;13.20;;;8.15;;
54171;SDS011;40076;52.354;4.970;2023-07-09T02:02:43;14.18;;;8.25;;
54171;SDS011;40076;52.354;4.970;2023-07-09T02:05:11;16.67;;;8.73;;
54171;SDS011;40076;52.354;4.970;2023-07-09T02:07:39;16.02;;;8.90;;
54171;SDS011;40076;52.354;4.970;2023-07-09T02:10:05;18.73;;;9.07;;
54171;SDS011;40076;52.354;4.970;2023-07-09T02:12:31;10.30;;;7.38;;
54171;SDS011;40076;52.354;4.970;2023-07-09T02:14:57;12.15;;;7.80;;
54171;SDS011;40076;52.354;4.970;2023-07-09T02:17:25;11.60;;;8.68;;
54171;SDS011;40076;52.354;4.970;2023-07-09T02:19:51;12.02;;;8.65;;
54171;SDS011;40076;52.354;4.970;2023-07-09T02:22:16;12.85;;;8.10;;
54171;SDS011;40076;52.354;4.970;2023-07-09T02:24:44;13.23;;;8.30;;
54171;SDS011;40076;52.354;4.970;2023-07-09T02:27:09;13.20;;;7.85;;
54171;SDS011;40076;52.354;4.970;2023-07-09T02:29:36;14.27;;;8.65;;
54171;SDS011;40076;52.354;4.970;2023-07-09T02:32:02;13.43;;;8.45;;
54171;SDS011;40076;52.354;4.970;2023-07-09T02:34:28;13.60;;;9.32;;
54171;SDS011;40076;52.354;4.970;2023-07-09T02:36:58;14.25;;;8.90;;
54171;SDS011;40076;52.354;4.970;2023-07-09T02:39:24;15.48;;;9.73;;
54171;SDS011;40076;52.354;4.970;2023-07-09T02:41:50;17.80;;;9.68;;
54171;SDS011;40076;52.354;4.970;2023-07-09T02:44:16;12.15;;;9.07;;
54171;SDS011;40076;52.354;4.970;2023-07-09T02:46:42;12.10;;;8.85;;
54171;SDS011;40076;52.354;4.970;2023-07-09T02:49:09;12.98;;;9.27;;
54171;SDS011;40076;52.354;4.970;2023-07-09T02:51:36;15.95;;;9.07;;
54171;SDS011;40076;52.354;4.970;2023-07-09T02:54:02;14.15;;;9.00;;
54171;SDS011;40076;52.354;4.970;2023-07-09T02:56:46;12.98;;;8.90;;
54171;SDS011;40076;52.354;4.970;2023-07-09T02:59:12;12.95;;;8.50;;
54171;SDS011;40076;52.354;4.970;2023-07-09T03:01:37;12.13;;;8.20;;
54171;SDS011;40076;52.354;4.970;2023-07-09T03:04:11;12.48;;;9.55;;
54171;SDS011;40076;52.354;4.970;2023-07-09T03:06:36;12.82;;;9.93;;
54171;SDS011;40076;52.354;4.970;2023-07-09T03:09:03;18.27;;;10.07;;
54171;SDS011;40076;52.354;4.970;2023-07-09T03:11:30;16.73;;;9.98;;
54171;SDS011;40076;52.354;4.970;2023-07-09T03:16:51;14.85;;;9.38;;
54171;SDS011;40076;52.354;4.970;2023-07-09T03:21:46;15.18;;;10.32;;
54171;SDS011;40076;52.354;4.970;2023-07-09T03:24:11;12.63;;;9.00;;
54171;SDS011;40076;52.354;4.970;2023-07-09T03:26:40;12.90;;;8.82;;
54171;SDS011;40076;52.354;4.970;2023-07-09T03:29:07;15.73;;;9.85;;
54171;SDS011;40076;52.354;4.970;2023-07-09T03:31:33;14.27;;;9.40;;
54171;SDS011;40076;52.354;4.970;2023-07-09T03:37:06;14.23;;;9.40;;
54171;SDS011;40076;52.354;4.970;2023-07-09T03:42:40;11.00;;;8.82;;
54171;SDS011;40076;52.354;4.970;2023-07-09T03:45:06;12.98;;;9.18;;
54171;SDS011;40076;52.354;4.970;2023-07-09T03:47:31;14.95;;;9.23;;
54171;SDS011;40076;52.354;4.970;2023-07-09T03:49:57;17.20;;;10.05;;
54171;SDS011;40076;52.354;4.970;2023-07-09T03:52:24;16.50;;;10.40;;
54171;SDS011;40076;52.354;4.970;2023-07-09T03:54:52;11.18;;;8.73;;
54171;SDS011;40076;52.354;4.970;2023-07-09T03:57:17;17.00;;;9.55;;
54171;SDS011;40076;52.354;4.970;2023-07-09T04:02:29;13.13;;;8.13;;
54171;SDS011;40076;52.354;4.970;2023-07-09T04:04:58;13.30;;;9.55;;
54171;SDS011;40076;52.354;4.970;2023-07-09T04:07:23;12.50;;;9.00;;
54171;SDS011;40076;52.354;4.970;2023-07-09T04:09:49;12.27;;;8.98;;
54171;SDS011;40076;52.354;4.970;2023-07-09T04:12:18;13.10;;;8.45;;
54171;SDS011;40076;52.354;4.970;2023-07-09T04:14:45;15.05;;;9.95;;
54171;SDS011;40076;52.354;4.970;2023-07-09T04:17:11;15.43;;;9.07;;
54171;SDS011;40076;52.354;4.970;2023-07-09T04:22:20;13.52;;;8.70;;
54171;SDS011;40076;52.354;4.970;2023-07-09T04:27:49;13.68;;;8.95;;
54171;SDS011;40076;52.354;4.970;2023-07-09T04:33:36;14.68;;;9.35;;
54171;SDS011;40076;52.354;4.970;2023-07-09T04:36:02;12.73;;;8.63;;
54171;SDS011;40076;52.354;4.970;2023-07-09T04:38:27;12.15;;;9.65;;
54171;SDS011;40076;52.354;4.970;2023-07-09T04:40:53;15.15;;;10.43;;
54171;SDS011;40076;52.354;4.970;2023-07-09T04:43:18;13.32;;;10.05;;
54171;SDS011;40076;52.354;4.970;2023-07-09T04:45:44;17.35;;;11.45;;
54171;SDS011;40076;52.354;4.970;2023-07-09T04:48:09;13.82;;;9.93;;
54171;SDS011;40076;52.354;4.970;2023-07-09T04:50:34;17.50;;;10.52;;
54171;SDS011;40076;52.354;4.970;2023-07-09T04:53:00;16.83;;;10.20;;
54171;SDS011;40076;52.354;4.970;2023-07-09T04:55:25;14.18;;;9.82;;
54171;SDS011;40076;52.354;4.970;2023-07-09T04:57:52;17.27;;;11.40;;
54171;SDS011;40076;52.354;4.970;2023-07-09T05:00:17;14.43;;;10.65;;
54171;SDS011;40076;52.354;4.970;2023-07-09T05:02:43;18.90;;;12.55;;
54171;SDS011;40076;52.354;4.970;2023-07-09T05:05:09;15.23;;;11.02;;
54171;SDS011;40076;52.354;4.970;2023-07-09T05:10:23;18.42;;;12.25;;
54171;SDS011;40076;52.354;4.970;2023-07-09T05:12:53;15.35;;;11.32;;
54171;SDS011;40076;52.354;4.970;2023-07-09T05:15:21;17.58;;;12.48;;
54171;SDS011;40076;52.354;4.970;2023-07-09T05:17:47;16.75;;;10.88;;
54171;SDS011;40076;52.354;4.970;2023-07-09T05:20:13;17.38;;;11.93;;
54171;SDS011;40076;52.354;4.970;2023-07-09T05:28:08;21.10;;;11.43;;
54171;SDS011;40076;52.354;4.970;2023-07-09T05:30:34;15.77;;;11.80;;
54171;SDS011;40076;52.354;4.970;2023-07-09T05:33:05;15.35;;;11.05;;
54171;SDS011;40076;52.354;4.970;2023-07-09T05:35:30;20.20;;;12.40;;
54171;SDS011;40076;52.354;4.970;2023-07-09T05:41:08;15.50;;;11.07;;
54171;SDS011;40076;52.354;4.970;2023-07-09T05:43:34;17.58;;;11.07;;
54171;SDS011;40076;52.354;4.970;2023-07-09T05:46:00;19.35;;;11.52;;
54171;SDS011;40076;52.354;4.970;2023-07-09T05:48:41;16.20;;;12.07;;
54171;SDS011;40076;52.354;4.970;2023-07-09T05:51:06;17.58;;;11.57;;
54171;SDS011;40076;52.354;4.970;2023-07-09T05:56:36;17.50;;;12.00;;
54171;SDS011;40076;52.354;4.970;2023-07-09T05:59:01;17.13;;;12.50;;
54171;SDS011;40076;52.354;4.970;2023-07-09T06:01:27;18.33;;;11.25;;
54171;SDS011;40076;52.354;4.970;2023-07-09T06:03:53;16.35;;;11.68;;
54171;SDS011;40076;52.354;4.970;2023-07-09T06:06:19;18.27;;;12.75;;
54171;SDS011;40076;52.354;4.970;2023-07-09T06:08:47;17.00;;;11.43;;
54171;SDS011;40076;52.354;4.970;2023-07-09T06:11:13;14.68;;;12.25;;
54171;SDS011;40076;52.354;4.970;2023-07-09T06:13:39;15.57;;;11.48;;
54171;SDS011;40076;52.354;4.970;2023-07-09T06:16:15;15.30;;;12.18;;
54171;SDS011;40076;52.354;4.970;2023-07-09T06:21:10;16.00;;;12.00;;
54171;SDS011;40076;52.354;4.970;2023-07-09T06:23:37;19.60;;;11.73;;
54171;SDS011;40076;52.354;4.970;2023-07-09T06:26:03;14.32;;;10.75;;
54171;SDS011;40076;52.354;4.970;2023-07-09T06:28:29;16.85;;;11.23;;
54171;SDS011;40076;52.354;4.970;2023-07-09T06:30:57;13.38;;;10.70;;
54171;SDS011;40076;52.354;4.970;2023-07-09T06:33:23;13.95;;;10.55;;
54171;SDS011;40076;52.354;4.970;2023-07-09T06:35:52;15.82;;;10.98;;
54171;SDS011;40076;52.354;4.970;2023-07-09T06:38:19;14.10;;;9.90;;
54171;SDS011;40076;52.354;4.970;2023-07-09T06:40:46;16.63;;;11.60;;
54171;SDS011;40076;52.354;4.970;2023-07-09T06:43:20;18.80;;;11.88;;
54171;SDS011;40076;52.354;4.970;2023-07-09T06:45:53;21.08;;;15.00;;
54171;SDS011;40076;52.354;4.970;2023-07-09T06:48:26;24.70;;;15.57;;
54171;SDS011;40076;52.354;4.970;2023-07-09T06:50:57;15.55;;;12.02;;
54171;SDS011;40076;52.354;4.970;2023-07-09T06:53:24;19.70;;;14.57;;
54171;SDS011;40076;52.354;4.970;2023-07-09T06:55:56;20.15;;;15.88;;
54171;SDS011;40076;52.354;4.970;2023-07-09T06:58:32;23.00;;;16.88;;
54171;SDS011;40076;52.354;4.970;2023-07-09T07:01:02;24.38;;;17.30;;
54171;SDS011;40076;52.354;4.970;2023-07-09T07:03:32;20.77;;;16.92;;
54171;SDS011;40076;52.354;4.970;2023-07-09T07:05:59;22.30;;;18.85;;
54171;SDS011;40076;52.354;4.970;2023-07-09T07:11:06;31.13;;;25.48;;
54171;SDS011;40076;52.354;4.970;2023-07-09T07:13:35;29.73;;;24.05;;
54171;SDS011;40076;52.354;4.970;2023-07-09T07:16:09;27.27;;;23.63;;
54171;SDS011;40076;52.354;4.970;2023-07-09T07:18:37;30.45;;;24.50;;
54171;SDS011;40076;52.354;4.970;2023-07-09T07:21:04;33.20;;;23.20;;
54171;SDS011;40076;52.354;4.970;2023-07-09T07:23:32;25.50;;;20.10;;
54171;SDS011;40076;52.354;4.970;2023-07-09T07:26:01;31.83;;;19.52;;
54171;SDS011;40076;52.354;4.970;2023-07-09T07:28:29;24.67;;;19.80;;
54171;SDS011;40076;52.354;4.970;2023-07-09T07:31:11;25.88;;;18.92;;
54171;SDS011;40076;52.354;4.970;2023-07-09T07:33:39;25.77;;;20.60;;
54171;SDS011;40076;52.354;4.970;2023-07-09T07:36:10;21.98;;;19.15;;
54171;SDS011;40076;52.354;4.970;2023-07-09T07:38:37;23.45;;;20.20;;
54171;SDS011;40076;52.354;4.970;2023-07-09T07:41:02;24.05;;;20.83;;
54171;SDS011;40076;52.354;4.970;2023-07-09T07:43:28;18.85;;;16.83;;
54171;SDS011;40076;52.354;4.970;2023-07-09T07:49:08;20.65;;;17.33;;
54171;SDS011;40076;52.354;4.970;2023-07-09T07:55:05;16.15;;;11.52;;
54171;SDS011;40076;52.354;4.970;2023-07-09T08:05:06;12.48;;;7.20;;
54171;SDS011;40076;52.354;4.970;2023-07-09T08:11:35;13.32;;;8.32;;
54171;SDS011;40076;52.354;4.970;2023-07-09T08:20:47;11.13;;;7.30;;
54171;SDS011;40076;52.354;4.970;2023-07-09T08:23:13;14.38;;;8.30;;
54171;SDS011;40076;52.354;4.970;2023-07-09T08:25:38;12.02;;;9.27;;
54171;SDS011;40076;52.354;4.970;2023-07-09T08:28:04;12.45;;;8.45;;
54171;SDS011;40076;52.354;4.970;2023-07-09T08:30:29;12.35;;;7.90;;
54171;SDS011;40076;52.354;4.970;2023-07-09T08:32:55;9.60;;;7.20;;
54171;SDS011;40076;52.354;4.970;2023-07-09T08:35:22;11.30;;;8.65;;
54171;SDS011;40076;52.354;4.970;2023-07-09T08:37:47;14.80;;;9.05;;
54171;SDS011;40076;52.354;4.970;2023-07-09T08:40:13;19.20;;;10.38;;
54171;SDS011;40076;52.354;4.970;2023-07-09T08:42:45;14.13;;;10.50;;
54171;SDS011;40076;52.354;4.970;2023-07-09T08:45:15;12.68;;;8.80;;
54171;SDS011;40076;52.354;4.970;2023-07-09T08:48:12;11.05;;;8.57;;
54171;SDS011;40076;52.354;4.970;2023-07-09T08:50:43;13.20;;;7.82;;
54171;SDS011;40076;52.354;4.970;2023-07-09T08:53:17;11.50;;;8.25;;
54171;SDS011;40076;52.354;4.970;2023-07-09T08:55:46;10.03;;;6.87;;
54171;SDS011;40076;52.354;4.970;2023-07-09T08:58:25;11.32;;;7.85;;
54171;SDS011;40076;52.354;4.970;2023-07-09T09:00:57;11.65;;;7.35;;
54171;SDS011;40076;52.354;4.970;2023-07-09T09:06:26;12.82;;;7.43;;
54171;SDS011;40076;52.354;4.970;2023-07-09T09:14:30;11.07;;;8.32;;
54171;SDS011;40076;52.354;4.970;2023-07-09T09:17:01;14.15;;;10.20;;
54171;SDS011;40076;52.354;4.970;2023-07-09T09:19:31;12.60;;;9.45;;
54171;SDS011;40076;52.354;4.970;2023-07-09T09:22:07;14.60;;;9.65;;
54171;SDS011;40076;52.354;4.970;2023-07-09T09:24:37;10.77;;;9.20;;
54171;SDS011;40076;52.354;4.970;2023-07-09T09:27:24;18.55;;;8.77;;
54171;SDS011;40076;52.354;4.970;2023-07-09T09:29:50;13.27;;;8.68;;
54171;SDS011;40076;52.354;4.970;2023-07-09T09:32:26;11.30;;;8.32;;
54171;SDS011;40076;52.354;4.970;2023-07-09T09:34:53;11.93;;;8.90;;
54171;SDS011;40076;52.354;4.970;2023-07-09T09:37:25;13.70;;;9.07;;
54171;SDS011;40076;52.354;4.970;2023-07-09T09:39:53;13.82;;;9.45;;
54171;SDS011;40076;52.354;4.970;2023-07-09T09:42:19;13.30;;;8.93;;
54171;SDS011;40076;52.354;4.970;2023-07-09T09:44:48;12.88;;;8.90;;
54171;SDS011;40076;52.354;4.970;2023-07-09T09:47:14;10.25;;;8.27;;
54171;SDS011;40076;52.354;4.970;2023-07-09T09:49:40;12.35;;;8.00;;
54171;SDS011;40076;52.354;4.970;2023-07-09T09:52:12;12.15;;;8.77;;
54171;SDS011;40076;52.354;4.970;2023-07-09T09:54:40;10.77;;;8.15;;
54171;SDS011;40076;52.354;4.970;2023-07-09T09:57:17;10.98;;;7.40;;
54171;SDS011;40076;52.354;4.970;2023-07-09T09:59:45;12.70;;;8.82;;
54171;SDS011;40076;52.354;4.970;2023-07-09T10:02:18;12.48;;;7.82;;
54171;SDS011;40076;52.354;4.970;2023-07-09T10:04:46;16.05;;;9.98;;
54171;SDS011;40076;52.354;4.970;2023-07-09T10:07:21;12.27;;;8.70;;
54171;SDS011;40076;52.354;4.970;2023-07-09T10:09:55;13.10;;;10.07;;
54171;SDS011;40076;52.354;4.970;2023-07-09T10:15:17;19.58;;;15.68;;
54171;SDS011;40076;52.354;4.970;2023-07-09T10:20:25;17.95;;;14.98;;
54171;SDS011;40076;52.354;4.970;2023-07-09T10:32:32;20.67;;;15.30;;
54171;SDS011;40076;52.354;4.970;2023-07-09T11:21:04;9.88;;;6.57;;
54171;SDS011;40076;52.354;4.970;2023-07-09T11:29:45;10.38;;;5.85;;
54171;SDS011;40076;52.354;4.970;2023-07-09T11:32:19;8.90;;;5.30;;
54171;SDS011;40076;52.354;4.970;2023-07-09T11:34:50;8.50;;;5.07;;
54171;SDS011;40076;52.354;4.970;2023-07-09T11:37:18;8.70;;;5.25;;
54171;SDS011;40076;52.354;4.970;2023-07-09T11:40:17;7.60;;;4.80;;
54171;SDS011;40076;52.354;4.970;2023-07-09T11:43:03;10.32;;;5.18;;
54171;SDS011;40076;52.354;4.970;2023-07-09T11:48:23;6.97;;;4.38;;
54171;SDS011;40076;52.354;4.970;2023-07-09T11:50:54;10.13;;;4.57;;
54171;SDS011;40076;52.354;4.970;2023-07-09T11:53:44;9.27;;;4.47;;
54171;SDS011;40076;52.354;4.970;2023-07-09T11:56:28;7.72;;;4.75;;
54171;SDS011;40076;52.354;4.970;2023-07-09T11:59:12;5.93;;;4.20;;
54171;SDS011;40076;52.354;4.970;2023-07-09T12:01:44;6.45;;;4.10;;
54171;SDS011;40076;52.354;4.970;2023-07-09T12:04:14;6.50;;;4.28;;
54171;SDS011;40076;52.354;4.970;2023-07-09T12:07:00;7.47;;;4.30;;
54171;SDS011;40076;52.354;4.970;2023-07-09T12:09:37;13.13;;;4.90;;
54171;SDS011;40076;52.354;4.970;2023-07-09T12:12:20;8.85;;;4.55;;
54171;SDS011;40076;52.354;4.970;2023-07-09T12:14:48;10.57;;;4.68;;
54171;SDS011;40076;52.354;4.970;2023-07-09T12:17:14;7.78;;;4.55;;
54171;SDS011;40076;52.354;4.970;2023-07-09T12:19:43;9.45;;;4.85;;
54171;SDS011;40076;52.354;4.970;2023-07-09T12:22:14;9.00;;;4.95;;
54171;SDS011;40076;52.354;4.970;2023-07-09T12:25:00;7.20;;;4.20;;
54171;SDS011;40076;52.354;4.970;2023-07-09T12:27:31;6.78;;;4.00;;
54171;SDS011;40076;52.354;4.970;2023-07-09T12:30:02;6.38;;;3.95;;
54171;SDS011;40076;52.354;4.970;2023-07-09T12:32:42;6.45;;;3.50;;
54171;SDS011;40076;52.354;4.970;2023-07-09T12:35:12;7.00;;;3.65;;
54171;SDS011;40076;52.354;4.970;2023-07-09T12:37:42;6.80;;;4.00;;
54171;SDS011;40076;52.354;4.970;2023-07-09T12:40:18;9.60;;;3.60;;
54171;SDS011;40076;52.354;4.970;2023-07-09T12:42:47;10.65;;;4.00;;
54171;SDS011;40076;52.354;4.970;2023-07-09T12:48:15;6.10;;;3.70;;
54171;SDS011;40076;52.354;4.970;2023-07-09T12:50:55;7.30;;;3.92;;
54171;SDS011;40076;52.354;4.970;2023-07-09T12:53:32;6.47;;;3.88;;
54171;SDS011;40076;52.354;4.970;2023-07-09T12:59:38;10.32;;;3.20;;
54171;SDS011;40076;52.354;4.970;2023-07-09T13:02:24;8.23;;;3.15;;
54171;SDS011;40076;52.354;4.970;2023-07-09T13:05:01;7.30;;;2.88;;
54171;SDS011;40076;52.354;4.970;2023-07-09T13:07:39;7.78;;;3.00;;
54171;SDS011;40076;52.354;4.970;2023-07-09T13:10:19;8.80;;;4.03;;
54171;SDS011;40076;52.354;4.970;2023-07-09T13:12:53;13.90;;;4.43;;
54171;SDS011;40076;52.354;4.970;2023-07-09T13:15:38;10.20;;;4.50;;
54171;SDS011;40076;52.354;4.970;2023-07-09T13:18:09;10.20;;;4.00;;
54171;SDS011;40076;52.354;4.970;2023-07-09T13:20:42;11.57;;;4.50;;
54171;SDS011;40076;52.354;4.970;2023-07-09T13:23:14;10.15;;;4.50;;
54171;SDS011;40076;52.354;4.970;2023-07-09T13:25:41;9.18;;;4.53;;
54171;SDS011;40076;52.354;4.970;2023-07-09T13:28:14;13.00;;;4.40;;
54171;SDS011;40076;52.354;4.970;2023-07-09T13:30:43;14.70;;;4.82;;
54171;SDS011;40076;52.354;4.970;2023-07-09T13:33:09;12.75;;;4.45;;
54171;SDS011;40076;52.354;4.970;2023-07-09T13:35:35;14.30;;;4.90;;
54171;SDS011;40076;52.354;4.970;2023-07-09T13:38:10;11.15;;;4.30;;
54171;SDS011;40076;52.354;4.970;2023-07-09T13:40:41;13.70;;;5.03;;
54171;SDS011;40076;52.354;4.970;2023-07-09T13:43:11;16.27;;;7.32;;
54171;SDS011;40076;52.354;4.970;2023-07-09T13:45:40;14.02;;;5.82;;
54171;SDS011;40076;52.354;4.970;2023-07-09T13:48:13;19.77;;;5.85;;
54171;SDS011;40076;52.354;4.970;2023-07-09T13:50:41;14.45;;;5.28;;
54171;SDS011;40076;52.354;4.970;2023-07-09T13:53:15;13.48;;;6.38;;
54171;SDS011;40076;52.354;4.970;2023-07-09T13:55:43;13.00;;;5.13;;
54171;SDS011;40076;52.354;4.970;2023-07-09T13:58:10;12.45;;;5.70;;
54171;SDS011;40076;52.354;4.970;2023-07-09T14:00:36;11.00;;;5.88;;
54171;SDS011;40076;52.354;4.970;2023-07-09T14:03:01;15.75;;;5.63;;
54171;SDS011;40076;52.354;4.970;2023-07-09T14:05:28;13.73;;;6.50;;
54171;SDS011;40076;52.354;4.970;2023-07-09T14:07:53;13.85;;;6.90;;
54171;SDS011;40076;52.354;4.970;2023-07-09T14:10:18;18.40;;;8.45;;
54171;SDS011;40076;52.354;4.970;2023-07-09T14:12:45;15.70;;;8.43;;
54171;SDS011;40076;52.354;4.970;2023-07-09T14:15:13;17.67;;;9.38;;
54171;SDS011;40076;52.354;4.970;2023-07-09T14:17:41;14.68;;;8.50;;
54171;SDS011;40076;52.354;4.970;2023-07-09T14:20:08;17.38;;;8.55;;
54171;SDS011;40076;52.354;4.970;2023-07-09T14:22:36;16.30;;;8.52;;
54171;SDS011;40076;52.354;4.970;2023-07-09T14:25:03;15.10;;;7.28;;
54171;SDS011;40076;52.354;4.970;2023-07-09T14:27:30;12.93;;;6.85;;
54171;SDS011;40076;52.354;4.970;2023-07-09T14:29:56;16.23;;;7.93;;
54171;SDS011;40076;52.354;4.970;2023-07-09T14:32:30;13.02;;;7.68;;
54171;SDS011;40076;52.354;4.970;2023-07-09T14:35:02;13.10;;;6.57;;
54171;SDS011;40076;52.354;4.970;2023-07-09T14:37:34;15.35;;;6.65;;
54171;SDS011;40076;52.354;4.970;2023-07-09T14:40:00;16.13;;;6.25;;
54171;SDS011;40076;52.354;4.970;2023-07-09T14:42:25;11.90;;;6.70;;
54171;SDS011;40076;52.354;4.970;2023-07-09T14:44:51;13.60;;;6.13;;
54171;SDS011;40076;52.354;4.970;2023-07-09T14:47:18;10.82;;;5.53;;
54171;SDS011;40076;52.354;4.970;2023-07-09T14:49:45;9.07;;;5.43;;
54171;SDS011;40076;52.354;4.970;2023-07-09T14:52:13;14.70;;;7.10;;
54171;SDS011;40076;52.354;4.970;2023-07-09T14:54:42;11.57;;;6.07;;
54171;SDS011;40076;52.354;4.970;2023-07-09T14:57:16;12.70;;;5.90;;
54171;SDS011;40076;52.354;4.970;2023-07-09T14:59:46;13.30;;;5.95;;
54171;SDS011;40076;52.354;4.970;2023-07-09T15:02:20;9.48;;;6.10;;
54171;SDS011;40076;52.354;4.970;2023-07-09T15:04:50;9.70;;;5.38;;
54171;SDS011;40076;52.354;4.970;2023-07-09T15:07:15;16.27;;;6.28;;
54171;SDS011;40076;52.354;4.970;2023-07-09T15:09:41;23.60;;;8.50;;
54171;SDS011;40076;52.354;4.970;2023-07-09T15:12:14;19.40;;;9.27;;
54171;SDS011;40076;52.354;4.970;2023-07-09T15:14:43;22.88;;;9.55;;
54171;SDS011;40076;52.354;4.970;2023-07-09T15:17:12;17.08;;;8.40;;
54171;SDS011;40076;52.354;4.970;2023-07-09T15:19:39;18.65;;;7.30;;
54171;SDS011;40076;52.354;4.970;2023-07-09T15:22:05;18.25;;;6.90;;
54171;SDS011;40076;52.354;4.970;2023-07-09T15:24:42;16.75;;;7.07;;
54171;SDS011;40076;52.354;4.970;2023-07-09T15:27:08;16.40;;;7.65;;
54171;SDS011;40076;52.354;4.970;2023-07-09T15:29:33;14.23;;;7.25;;
54171;SDS011;40076;52.354;4.970;2023-07-09T15:31:59;22.17;;;7.07;;
54171;SDS011;40076;52.354;4.970;2023-07-09T15:34:24;13.60;;;7.78;;
54171;SDS011;40076;52.354;4.970;2023-07-09T15:36:51;13.00;;;7.07;;
54171;SDS011;40076;52.354;4.970;2023-07-09T15:39:17;11.85;;;6.78;;
54171;SDS011;40076;52.354;4.970;2023-07-09T15:41:44;10.50;;;6.63;;
54171;SDS011;40076;52.354;4.970;2023-07-09T15:44:13;11.32;;;6.15;;
54171;SDS011;40076;52.354;4.970;2023-07-09T15:46:40;13.85;;;7.00;;
54171;SDS011;40076;52.354;4.970;2023-07-09T15:49:12;13.02;;;8.20;;
54171;SDS011;40076;52.354;4.970;2023-07-09T15:51:38;13.10;;;8.15;;
54171;SDS011;40076;52.354;4.970;2023-07-09T15:54:25;13.07;;;7.57;;
54171;SDS011;40076;52.354;4.970;2023-07-09T15:56:50;14.60;;;7.72;;
54171;SDS011;40076;52.354;4.970;2023-07-09T15:59:31;13.30;;;7.35;;
54171;SDS011;40076;52.354;4.970;2023-07-09T16:01:58;14.35;;;8.15;;
54171;SDS011;40076;52.354;4.970;2023-07-09T16:04:26;10.50;;;7.75;;
54171;SDS011;40076;52.354;4.970;2023-07-09T16:06:52;11.43;;;7.15;;
54171;SDS011;40076;52.354;4.970;2023-07-09T16:09:18;11.65;;;7.90;;
54171;SDS011;40076;52.354;4.970;2023-07-09T16:11:48;11.13;;;6.72;;
54171;SDS011;40076;52.354;4.970;2023-07-09T16:14:17;11.85;;;6.95;;
54171;SDS011;40076;52.354;4.970;2023-07-09T16:16:48;10.43;;;7.40;;
54171;SDS011;40076;52.354;4.970;2023-07-09T16:19:16;12.15;;;6.93;;
54171;SDS011;40076;52.354;4.970;2023-07-09T16:21:44;10.43;;;6.95;;
54171;SDS011;40076;52.354;4.970;2023-07-09T16:24:14;13.93;;;7.95;;
54171;SDS011;40076;52.354;4.970;2023-07-09T16:26:44;14.68;;;8.32;;
54171;SDS011;40076;52.354;4.970;2023-07-09T16:29:14;12.32;;;7.50;;
54171;SDS011;40076;52.354;4.970;2023-07-09T16:31:47;11.57;;;7.57;;
54171;SDS011;40076;52.354;4.970;2023-07-09T16:34:13;13.07;;;8.05;;
54171;SDS011;40076;52.354;4.970;2023-07-09T16:36:38;14.32;;;8.27;;
54171;SDS011;40076;52.354;4.970;2023-07-09T16:39:38;14.20;;;8.48;;
54171;SDS011;40076;52.354;4.970;2023-07-09T16:42:04;19.13;;;10.02;;
54171;SDS011;40076;52.354;4.970;2023-07-09T16:44:34;13.85;;;8.15;;
54171;SDS011;40076;52.354;4.970;2023-07-09T16:47:00;15.18;;;8.48;;
54171;SDS011;40076;52.354;4.970;2023-07-09T16:49:31;12.68;;;7.85;;
54171;SDS011;40076;52.354;4.970;2023-07-09T16:52:01;12.90;;;8.57;;
54171;SDS011;40076;52.354;4.970;2023-07-09T16:54:27;16.58;;;7.72;;
54171;SDS011;40076;52.354;4.970;2023-07-09T16:56:52;11.18;;;7.93;;
54171;SDS011;40076;52.354;4.970;2023-07-09T16:59:18;15.15;;;8.38;;
54171;SDS011;40076;52.354;4.970;2023-07-09T17:01:44;13.93;;;9.55;;
54171;SDS011;40076;52.354;4.970;2023-07-09T17:04:18;15.77;;;8.52;;
54171;SDS011;40076;52.354;4.970;2023-07-09T17:06:46;13.18;;;8.85;;
54171;SDS011;40076;52.354;4.970;2023-07-09T17:09:16;14.18;;;8.68;;
54171;SDS011;40076;52.354;4.970;2023-07-09T17:11:44;16.75;;;8.57;;
54171;SDS011;40076;52.354;4.970;2023-07-09T17:14:13;13.55;;;8.15;;
54171;SDS011;40076;52.354;4.970;2023-07-09T17:16:41;10.00;;;7.47;;
54171;SDS011;40076;52.354;4.970;2023-07-09T17:19:09;12.60;;;6.80;;
54171;SDS011;40076;52.354;4.970;2023-07-09T17:21:36;10.27;;;6.30;;
54171;SDS011;40076;52.354;4.970;2023-07-09T17:24:02;11.85;;;6.63;;
54171;SDS011;40076;52.354;4.970;2023-07-09T17:26:28;11.02;;;6.38;;
54171;SDS011;40076;52.354;4.970;2023-07-09T17:28:54;13.27;;;6.20;;
54171;SDS011;40076;52.354;4.970;2023-07-09T17:31:19;13.98;;;7.22;;